createdAt,value
2024-02-29T00:01:17.341Z,101801.88
2024-02-29T00:03:44.967Z,101801.88
2024-02-29T00:06:12.738Z,101798.53
2024-02-29T00:08:41.597Z,101794.78
2024-02-29T00:11:09.164Z,101793.25
2024-02-29T00:13:36.788Z,101784.78
2024-02-29T00:16:04.662Z,101790.41
2024-02-29T00:18:32.503Z,101794.72
2024-02-29T00:21:00.303Z,101793.06
2024-02-29T00:23:27.820Z,101801.03
2024-02-29T00:25:57.907Z,101800.16
2024-02-29T00:28:25.453Z,101796.69
2024-02-29T00:30:53.018Z,101790.94
2024-02-29T00:33:20.618Z,101795.06
2024-02-29T00:35:49.684Z,101782.00
2024-02-29T00:38:16.856Z,101781.84
2024-02-29T00:40:44.477Z,101783.72
2024-02-29T00:43:13.494Z,101785.38
2024-02-29T00:45:41.211Z,101772.53
2024-02-29T00:48:09.258Z,101779.31
2024-02-29T00:50:36.820Z,101776.03
2024-02-29T00:53:04.500Z,101781.31
2024-02-29T00:55:32.025Z,101775.22
2024-02-29T00:57:59.602Z,101767.59
2024-02-29T01:00:28.543Z,101774.50
2024-02-29T01:02:56.069Z,101772.03
2024-02-29T01:05:23.667Z,101770.34
2024-02-29T01:07:52.282Z,101771.94
2024-02-29T01:10:20.118Z,101770.03
2024-02-29T01:12:47.990Z,101769.31
2024-02-29T01:15:15.937Z,101767.56
2024-02-29T01:17:46.721Z,101767.59
2024-02-29T01:20:15.141Z,101764.56
2024-02-29T01:22:42.600Z,101758.72
2024-02-29T01:25:11.196Z,101759.22
2024-02-29T01:27:38.875Z,101761.97
2024-02-29T01:30:07.534Z,101761.13
2024-02-29T01:32:37.666Z,101762.97
2024-02-29T01:35:09.896Z,101769.78
2024-02-29T01:37:37.602Z,101764.66
2024-02-29T01:40:06.612Z,101760.47
2024-02-29T01:42:34.956Z,101762.34
2024-02-29T01:45:04.094Z,101767.63
2024-02-29T01:47:31.644Z,101752.00
2024-02-29T01:50:00.710Z,101752.81
2024-02-29T01:52:32.497Z,101747.56
2024-02-29T01:55:00.250Z,101742.53
2024-02-29T01:57:28.772Z,101750.41
2024-02-29T01:59:56.320Z,101755.59
2024-02-29T02:02:23.985Z,101740.88
2024-02-29T02:04:51.805Z,101741.00
2024-02-29T02:07:19.471Z,101732.25
2024-02-29T02:09:48.411Z,101729.47
2024-02-29T02:12:16.124Z,101727.81
2024-02-29T02:14:43.750Z,101728.53
2024-02-29T02:17:12.069Z,101732.91
2024-02-29T02:19:40.868Z,101721.81
2024-02-29T02:22:10.955Z,101714.00
2024-02-29T02:24:38.835Z,101708.00
2024-02-29T02:27:06.471Z,101702.84
2024-02-29T02:29:34.065Z,101693.25
2024-02-29T02:32:01.648Z,101695.88
2024-02-29T02:34:29.199Z,101681.28
2024-02-29T02:36:56.829Z,101681.38
2024-02-29T02:39:25.700Z,101678.97
2024-02-29T02:41:53.276Z,101670.16
2024-02-29T02:44:20.811Z,101678.97
2024-02-29T02:46:48.313Z,101668.81
2024-02-29T02:49:17.026Z,101672.38
2024-02-29T02:51:44.738Z,101667.13
2024-02-29T02:54:12.356Z,101667.13
2024-02-29T02:56:41.185Z,101673.84
2024-02-29T02:59:08.731Z,101673.91
2024-02-29T03:01:36.276Z,101655.06
2024-02-29T03:04:05.376Z,101650.06
2024-02-29T03:06:33.067Z,101651.72
2024-02-29T03:09:00.586Z,101655.78
2024-02-29T03:11:28.235Z,101655.75
2024-02-29T03:13:57.139Z,101652.38
2024-02-29T03:16:25.162Z,101640.53
2024-02-29T03:18:52.722Z,101637.69
2024-02-29T03:21:20.515Z,101640.00
2024-02-29T03:23:48.478Z,101637.66
2024-02-29T03:26:16.320Z,101640.56
2024-02-29T03:28:44.041Z,101637.88
2024-02-29T03:31:14.447Z,101635.28
2024-02-29T03:33:42.654Z,101631.78
2024-02-29T03:36:10.667Z,101642.47
2024-02-29T03:38:38.686Z,101631.19
2024-02-29T03:41:07.983Z,101630.41
2024-02-29T03:43:36.392Z,101632.03
2024-02-29T03:46:04.058Z,101626.00
2024-02-29T03:48:33.224Z,101617.50
2024-02-29T03:51:01.088Z,101620.44
2024-02-29T03:53:28.680Z,101625.59
2024-02-29T03:55:56.237Z,101616.94
2024-02-29T03:58:23.832Z,101620.31
2024-02-29T04:00:51.474Z,101619.69
2024-02-29T04:03:19.326Z,101606.81
2024-02-29T04:05:48.251Z,101616.22
2024-02-29T04:08:15.813Z,101612.72
2024-02-29T04:10:47.182Z,101610.44
2024-02-29T04:13:14.872Z,101618.25
2024-02-29T04:15:42.565Z,101610.53
2024-02-29T04:18:10.146Z,101611.31
2024-02-29T04:20:37.766Z,101613.97
2024-02-29T04:23:06.714Z,101608.78
2024-02-29T04:25:35.136Z,101619.09
2024-02-29T04:28:03.131Z,101612.97
2024-02-29T04:30:30.968Z,101602.81
2024-02-29T04:32:58.673Z,101600.25
2024-02-29T04:35:26.288Z,101596.78
2024-02-29T04:37:53.931Z,101596.78
2024-02-29T04:40:22.859Z,101589.06
2024-02-29T04:42:50.439Z,101599.47
2024-02-29T04:45:18.060Z,101588.56
2024-02-29T04:47:45.770Z,101585.13
2024-02-29T04:50:13.389Z,101586.13
2024-02-29T04:52:40.930Z,101583.53
2024-02-29T04:55:09.354Z,101590.91
2024-02-29T04:57:38.293Z,101590.81
2024-02-29T05:00:07.493Z,101576.91
2024-02-29T05:02:35.329Z,101582.28
2024-02-29T05:05:02.857Z,101587.34
2024-02-29T05:07:30.452Z,101595.19
2024-02-29T05:09:58.087Z,101594.28
2024-02-29T05:12:27.939Z,101583.94
2024-02-29T05:15:00.497Z,101585.63
2024-02-29T05:17:28.185Z,101589.09
2024-02-29T05:19:57.308Z,101589.84
2024-02-29T05:22:24.944Z,101587.13
2024-02-29T05:24:52.581Z,101587.13
2024-02-29T05:27:20.120Z,101593.47
2024-02-29T05:29:47.653Z,101595.03
2024-02-29T05:32:18.756Z,101590.63
2024-02-29T05:34:47.190Z,101589.75
2024-02-29T05:37:15.215Z,101576.13
2024-02-29T05:39:43.503Z,101567.66
2024-02-29T05:42:11.099Z,101569.44
2024-02-29T05:44:38.854Z,101566.72
2024-02-29T05:47:06.619Z,101572.03
2024-02-29T05:49:35.447Z,101564.59
2024-02-29T05:52:03.076Z,101579.34
2024-02-29T05:54:30.904Z,101574.13
2024-02-29T05:56:59.683Z,101571.47
2024-02-29T05:59:28.397Z,101570.47
2024-02-29T06:01:56.098Z,101564.50
2024-02-29T06:04:23.847Z,101559.44
2024-02-29T06:06:52.731Z,101568.59
2024-02-29T06:09:20.229Z,101554.88
2024-02-29T06:11:48.802Z,101555.88
2024-02-29T06:14:16.331Z,101564.72
2024-02-29T06:16:43.769Z,101555.94
2024-02-29T06:19:11.417Z,101567.88
2024-02-29T06:21:39.000Z,101565.13
2024-02-29T06:24:08.636Z,101564.13
2024-02-29T06:26:36.323Z,101558.03
2024-02-29T06:29:03.894Z,101559.09
2024-02-29T06:31:31.381Z,101553.72
2024-02-29T06:33:59.251Z,101559.63
2024-02-29T06:36:26.881Z,101554.47
2024-02-29T06:38:54.392Z,101556.03
2024-02-29T06:41:23.215Z,101575.88
2024-02-29T06:43:50.819Z,101571.88
2024-02-29T06:46:18.911Z,101563.59
2024-02-29T06:48:46.554Z,101557.69
2024-02-29T06:51:14.064Z,101564.50
2024-02-29T06:53:41.608Z,101561.94
2024-02-29T06:56:09.137Z,101552.16
2024-02-29T06:58:38.162Z,101549.66
2024-02-29T07:01:07.397Z,101546.13
2024-02-29T07:03:35.154Z,101551.38
2024-02-29T07:06:03.871Z,101555.63
2024-02-29T07:08:35.444Z,101543.44
2024-02-29T07:11:05.006Z,101550.13
2024-02-29T07:13:33.238Z,101543.84
2024-02-29T07:16:26.936Z,101539.38
2024-02-29T07:18:54.711Z,101536.88
2024-02-29T07:21:22.294Z,101535.09
2024-02-29T07:23:50.825Z,101533.16
2024-02-29T07:26:19.264Z,101527.97
2024-02-29T07:28:47.144Z,101532.72
2024-02-29T07:31:14.747Z,101528.22
2024-02-29T07:33:44.077Z,101521.31
2024-02-29T07:36:12.232Z,101520.31
2024-02-29T07:38:40.189Z,101525.50
2024-02-29T07:41:08.024Z,101531.19
2024-02-29T07:43:35.696Z,101523.91
2024-02-29T07:46:03.667Z,101527.84
2024-02-29T07:48:32.406Z,101527.34
2024-02-29T07:51:01.640Z,101531.56
2024-02-29T07:53:30.589Z,101526.53
2024-02-29T07:55:58.649Z,101525.25
2024-02-29T07:58:27.516Z,101527.53
2024-02-29T08:00:55.506Z,101523.13
2024-02-29T08:03:23.270Z,101521.63
2024-02-29T08:05:50.906Z,101517.09
2024-02-29T08:08:20.130Z,101510.59
2024-02-29T08:10:47.861Z,101514.66
2024-02-29T08:13:15.710Z,101516.38
2024-02-29T08:15:44.338Z,101512.00
2024-02-29T08:18:12.715Z,101515.41
2024-02-29T08:20:40.659Z,101503.88
2024-02-29T08:23:08.579Z,101505.34
2024-02-29T08:25:38.011Z,101498.88
2024-02-29T08:28:06.771Z,101512.50
2024-02-29T08:30:34.575Z,101504.28
2024-02-29T08:33:02.663Z,101508.38
2024-02-29T08:35:30.598Z,101498.63
2024-02-29T08:37:58.414Z,101500.78
2024-02-29T08:40:26.609Z,101493.72
2024-02-29T08:42:55.899Z,101501.28
2024-02-29T08:45:24.135Z,101498.19
2024-02-29T08:47:52.041Z,101496.97
2024-02-29T08:50:19.779Z,101494.88
2024-02-29T08:52:48.347Z,101496.34
2024-02-29T08:55:16.104Z,101487.56
2024-02-29T08:57:44.257Z,101481.53
2024-02-29T09:00:17.387Z,101493.25
2024-02-29T09:02:46.151Z,101487.50
2024-02-29T09:05:14.013Z,101478.91
2024-02-29T09:07:41.701Z,101483.94
2024-02-29T09:10:10.876Z,101476.66
2024-02-29T09:12:38.665Z,101479.28
2024-02-29T09:15:06.919Z,101477.06
2024-02-29T09:17:35.865Z,101480.06
2024-02-29T09:20:06.000Z,101469.94
2024-02-29T09:22:33.718Z,101471.16
2024-02-29T09:25:01.436Z,101470.72
2024-02-29T09:27:29.271Z,101476.38
2024-02-29T09:29:58.560Z,101464.38
2024-02-29T09:32:27.028Z,101469.28
2024-02-29T09:34:56.014Z,101470.25
2024-02-29T09:37:23.811Z,101460.44
2024-02-29T09:39:51.898Z,101465.56
2024-02-29T09:42:19.926Z,101459.09
2024-02-29T09:44:49.169Z,101455.94
2024-02-29T09:47:20.337Z,101436.19
2024-02-29T09:49:51.197Z,101446.19
2024-02-29T09:52:25.333Z,101449.00
2024-02-29T09:54:54.132Z,101458.84
2024-02-29T09:57:22.573Z,101440.16
2024-02-29T09:59:50.598Z,101448.47
2024-02-29T10:02:18.436Z,101450.25
2024-02-29T10:04:47.376Z,101437.41
2024-02-29T10:07:15.797Z,101438.22
2024-02-29T10:09:45.652Z,101442.41
2024-02-29T10:12:18.584Z,101431.91
2024-02-29T10:14:47.304Z,101435.97
2024-02-29T10:17:14.903Z,101434.53
2024-02-29T10:19:42.767Z,101415.63
2024-02-29T10:22:10.405Z,101435.59
2024-02-29T10:24:38.121Z,101422.00
2024-02-29T10:27:07.248Z,101419.03
2024-02-29T10:29:34.982Z,101431.03
2024-02-29T10:32:02.552Z,101416.31
2024-02-29T10:34:30.154Z,101409.47
2024-02-29T10:36:57.924Z,101412.69
2024-02-29T10:39:26.826Z,101416.56
2024-02-29T10:41:56.900Z,101409.97
2024-02-29T10:44:32.191Z,101408.81
2024-02-29T10:47:04.123Z,101405.47
2024-02-29T10:49:37.958Z,101409.19
2024-02-29T10:52:12.898Z,101408.38
2024-02-29T10:54:46.747Z,101399.97
2024-02-29T10:57:17.213Z,101393.72
2024-02-29T10:59:52.301Z,101390.91
2024-02-29T11:02:21.902Z,101395.63
2024-02-29T11:04:49.923Z,101385.28
2024-02-29T11:07:17.922Z,101382.34
2024-02-29T11:09:45.782Z,101374.09
2024-02-29T11:12:15.646Z,101388.69
2024-02-29T11:14:47.837Z,101377.06
2024-02-29T11:17:16.727Z,101364.41
2024-02-29T11:19:52.114Z,101357.59
2024-02-29T11:22:34.452Z,101359.53
2024-02-29T11:25:10.786Z,101333.63
2024-02-29T11:27:39.486Z,101344.56
2024-02-29T11:30:19.263Z,101335.66
2024-02-29T11:32:46.961Z,101336.81
2024-02-29T11:35:15.873Z,101335.84
2024-02-29T11:37:45.520Z,101335.88
2024-02-29T11:43:02.725Z,101317.53
2024-02-29T11:45:32.482Z,101310.94
2024-02-29T11:48:01.467Z,101305.22
2024-02-29T11:50:30.734Z,101304.66
2024-02-29T11:53:02.195Z,101293.41
2024-02-29T11:55:32.126Z,101300.13
2024-02-29T11:58:00.780Z,101293.28
2024-02-29T12:00:29.435Z,101288.94
2024-02-29T12:02:58.911Z,101278.25
2024-02-29T12:05:26.602Z,101275.53
2024-02-29T12:07:55.649Z,101266.16
2024-02-29T12:10:25.069Z,101269.47
2024-02-29T12:12:52.882Z,101270.66
2024-02-29T12:15:23.591Z,101268.91
2024-02-29T12:17:51.298Z,101264.75
2024-02-29T12:20:20.246Z,101253.22
2024-02-29T12:22:50.224Z,101253.84
2024-02-29T12:25:18.813Z,101249.13
2024-02-29T12:27:47.156Z,101237.81
2024-02-29T12:30:15.497Z,101248.31
2024-02-29T12:32:44.374Z,101239.63
2024-02-29T12:35:13.930Z,101234.38
2024-02-29T12:37:44.392Z,101225.19
2024-02-29T12:40:14.258Z,101218.84
2024-02-29T12:42:44.020Z,101218.31
2024-02-29T12:45:15.979Z,101215.59
2024-02-29T12:47:45.794Z,101208.69
2024-02-29T12:50:13.590Z,101198.66
2024-02-29T12:52:41.262Z,101199.75
2024-02-29T12:55:11.484Z,101192.72
2024-02-29T12:57:39.558Z,101184.47
2024-02-29T13:00:09.773Z,101194.56
2024-02-29T13:02:48.347Z,101186.31
2024-02-29T13:05:16.398Z,101175.28
2024-02-29T13:07:44.292Z,101170.06
2024-02-29T13:10:13.618Z,101164.91
2024-02-29T13:12:42.422Z,101159.50
2024-02-29T13:15:11.158Z,101145.91
2024-02-29T13:17:40.234Z,101157.53
2024-02-29T13:20:08.762Z,101137.41
2024-02-29T13:22:36.772Z,101137.91
2024-02-29T13:25:05.659Z,101127.47
2024-02-29T13:27:35.253Z,101141.31
2024-02-29T13:30:04.300Z,101129.63
2024-02-29T13:32:33.276Z,101121.78
2024-02-29T13:35:02.563Z,101119.97
2024-02-29T13:37:30.884Z,101114.28
2024-02-29T13:39:58.562Z,101108.22
2024-02-29T13:42:26.322Z,101107.75
2024-02-29T13:44:55.653Z,101108.97
2024-02-29T13:47:23.387Z,101104.84
2024-02-29T13:49:51.152Z,101106.31
2024-02-29T13:52:19.310Z,101096.81
2024-02-29T13:54:47.884Z,101089.97
2024-02-29T13:57:15.849Z,101088.75
2024-02-29T13:59:44.463Z,101091.16
2024-02-29T14:02:13.559Z,101088.91
2024-02-29T14:04:43.599Z,101086.63
2024-02-29T14:07:11.352Z,101071.28
2024-02-29T14:09:39.278Z,101075.06
2024-02-29T14:12:07.068Z,101065.97
2024-02-29T14:14:34.746Z,101078.34
2024-02-29T14:17:02.477Z,101074.19
2024-02-29T14:19:33.302Z,101071.56
2024-02-29T14:22:01.701Z,101063.63
2024-02-29T14:24:29.418Z,101057.31
2024-02-29T14:26:57.496Z,101058.41
2024-02-29T14:29:25.289Z,101061.19
2024-02-29T14:31:53.011Z,101054.50
2024-02-29T14:34:21.455Z,101051.72
2024-02-29T14:36:50.662Z,101046.69
2024-02-29T14:39:21.234Z,101044.88
2024-02-29T14:41:49.394Z,101032.38
2024-02-29T14:44:17.139Z,101036.25
2024-02-29T14:46:45.189Z,101047.63
2024-02-29T14:49:15.934Z,101038.56
2024-02-29T14:51:43.629Z,101026.19
2024-02-29T14:54:12.764Z,101033.38
2024-02-29T14:56:40.673Z,101034.06
2024-02-29T14:59:09.205Z,101021.09
2024-02-29T15:01:36.874Z,101016.53
2024-02-29T15:04:04.666Z,101016.41
2024-02-29T15:06:32.407Z,101006.06
2024-02-29T15:08:59.993Z,101005.22
2024-02-29T15:11:29.257Z,101002.22
2024-02-29T15:13:56.900Z,101003.41
2024-02-29T15:16:24.643Z,101005.75
2024-02-29T15:18:52.580Z,100994.38
2024-02-29T15:21:20.759Z,100984.38
2024-02-29T15:23:49.332Z,100985.75
2024-02-29T15:26:17.247Z,100992.91
2024-02-29T15:28:49.783Z,100982.94
2024-02-29T15:31:17.940Z,100982.94
2024-02-29T15:33:46.684Z,100969.94
2024-02-29T15:36:14.595Z,100972.41
2024-02-29T15:38:54.685Z,100963.06
2024-02-29T15:41:22.457Z,100965.09
2024-02-29T15:43:53.901Z,100960.00
2024-02-29T15:46:21.565Z,100957.13
2024-02-29T15:48:49.288Z,100957.13
2024-02-29T15:51:16.914Z,100954.22
2024-02-29T15:53:45.101Z,100947.88
2024-02-29T15:56:15.315Z,100949.69
2024-02-29T15:58:43.373Z,100950.38
2024-02-29T16:01:12.365Z,100945.56
2024-02-29T16:03:40.048Z,100945.72
2024-02-29T16:06:09.628Z,100937.34
2024-02-29T16:08:37.226Z,100938.25
2024-02-29T16:11:06.421Z,100935.81
2024-02-29T16:13:35.909Z,100932.00
2024-02-29T16:16:04.376Z,100925.81
2024-02-29T16:18:33.451Z,100931.78
2024-02-29T16:21:03.060Z,100927.69
2024-02-29T16:23:30.716Z,100929.28
2024-02-29T16:25:58.361Z,100928.53
2024-02-29T16:28:27.071Z,100928.78
2024-02-29T16:30:54.939Z,100925.06
2024-02-29T16:33:22.860Z,100928.41
2024-02-29T16:35:51.952Z,100931.91
2024-02-29T16:38:20.224Z,100929.41
2024-02-29T16:40:48.178Z,100923.69
2024-02-29T16:43:21.420Z,100917.16
2024-02-29T16:45:49.429Z,100924.28
2024-02-29T16:48:17.470Z,100919.25
2024-02-29T16:50:46.291Z,100917.84
2024-02-29T16:53:17.649Z,100918.31
2024-02-29T16:55:45.206Z,100915.69
2024-02-29T16:58:13.864Z,100920.16
2024-02-29T17:00:41.587Z,100912.88
2024-02-29T17:03:09.280Z,100909.44
2024-02-29T17:05:36.820Z,100906.13
2024-02-29T17:08:05.555Z,100912.69
2024-02-29T17:10:34.435Z,100906.28
2024-02-29T17:13:02.096Z,100903.19
2024-02-29T17:15:29.658Z,100912.72
2024-02-29T17:17:57.247Z,100898.63
2024-02-29T17:20:25.096Z,100889.94
2024-02-29T17:22:52.668Z,100892.44
2024-02-29T17:25:20.255Z,100896.97
2024-02-29T17:27:49.305Z,100902.94
2024-02-29T17:30:17.464Z,100894.34
2024-02-29T17:32:47.459Z,100900.06
2024-02-29T17:35:16.511Z,100898.41
2024-02-29T17:37:44.876Z,100896.84
2024-02-29T17:40:13.609Z,100894.94
2024-02-29T17:42:41.175Z,100881.09
2024-02-29T17:45:11.434Z,100889.19
2024-02-29T17:47:41.522Z,100883.69
2024-02-29T17:50:16.478Z,100870.19
2024-02-29T17:52:47.263Z,100881.38
2024-02-29T17:55:15.503Z,100874.25
2024-02-29T17:57:43.875Z,100873.94
2024-02-29T18:00:15.283Z,100878.09
2024-02-29T18:02:44.759Z,100869.06
2024-02-29T18:05:12.705Z,100871.56
2024-02-29T18:07:47.497Z,100871.78
2024-02-29T18:10:22.906Z,100860.28
2024-02-29T18:12:50.704Z,100874.28
2024-02-29T18:15:19.637Z,100855.03
2024-02-29T18:17:47.189Z,100858.75
2024-02-29T18:20:17.845Z,100860.03
2024-02-29T18:22:45.727Z,100851.72
2024-02-29T18:25:13.662Z,100847.69
2024-02-29T18:31:55.374Z,100830.25
2024-02-29T18:34:22.851Z,100829.78
2024-02-29T18:36:50.422Z,100836.84
2024-02-29T18:39:18.018Z,100822.16
2024-02-29T18:41:45.514Z,100828.53
2024-02-29T18:44:14.386Z,100831.97
2024-02-29T18:46:43.107Z,100827.78
2024-02-29T18:49:12.356Z,100821.56
2024-02-29T18:51:44.134Z,100817.50
2024-02-29T18:54:11.648Z,100820.16
2024-02-29T18:56:41.623Z,100811.34
2024-02-29T18:59:09.875Z,100813.38
2024-02-29T19:01:37.876Z,100809.88
2024-02-29T19:04:05.838Z,100806.09
2024-02-29T19:06:34.734Z,100809.94
2024-02-29T19:09:02.429Z,100810.19
2024-02-29T19:11:30.035Z,100809.22
2024-02-29T19:13:57.985Z,100802.06
2024-02-29T19:16:27.007Z,100796.63
2024-02-29T19:18:54.702Z,100785.50
2024-02-29T19:21:22.547Z,100788.22
2024-02-29T19:23:51.399Z,100792.03
2024-02-29T19:26:19.008Z,100785.69
2024-02-29T19:28:46.497Z,100788.06
2024-02-29T19:31:16.433Z,100786.53
2024-02-29T19:33:44.642Z,100781.06
2024-02-29T19:36:16.112Z,100768.69
2024-02-29T19:38:43.786Z,100773.81
2024-02-29T19:41:12.938Z,100778.44
2024-02-29T19:43:40.531Z,100767.84
2024-02-29T19:46:08.244Z,100763.22
2024-02-29T19:48:36.328Z,100772.41
2024-02-29T19:51:08.157Z,100764.63
2024-02-29T19:53:36.846Z,100770.72
2024-02-29T19:56:04.787Z,100767.13
2024-02-29T19:58:33.675Z,100753.94
2024-02-29T20:01:02.229Z,100758.44
2024-02-29T20:03:30.175Z,100753.94
2024-02-29T20:05:58.876Z,100751.16
2024-02-29T20:08:26.518Z,100749.72
2024-02-29T20:10:54.042Z,100743.91
2024-02-29T20:13:21.842Z,100744.72
2024-02-29T20:15:51.098Z,100745.78
2024-02-29T20:18:19.183Z,100742.34
2024-02-29T20:20:46.752Z,100735.19
2024-02-29T20:23:14.378Z,100735.41
2024-02-29T20:25:44.426Z,100724.34
2024-02-29T20:28:11.966Z,100723.28
2024-02-29T20:30:40.061Z,100722.91
2024-02-29T20:33:08.954Z,100722.25
2024-02-29T20:35:36.644Z,100728.50
2024-02-29T20:38:04.374Z,100717.00
2024-02-29T20:40:31.925Z,100716.44
2024-02-29T20:42:59.482Z,100714.75
2024-02-29T20:45:26.963Z,100705.50
2024-02-29T20:47:54.485Z,100701.81
2024-02-29T20:50:23.698Z,100700.84
2024-02-29T20:52:51.287Z,100691.91
2024-02-29T20:55:19.086Z,100686.56
2024-02-29T20:57:46.766Z,100683.22
2024-02-29T21:00:15.368Z,100684.88
2024-02-29T21:02:42.899Z,100681.28
2024-02-29T21:05:10.452Z,100675.13
2024-02-29T21:07:42.163Z,100673.66
2024-02-29T21:10:12.024Z,100670.22
2024-02-29T21:12:39.845Z,100670.22
2024-02-29T21:15:08.446Z,100662.84
2024-02-29T21:17:36.023Z,100659.97
2024-02-29T21:20:03.779Z,100664.28
2024-02-29T21:22:31.339Z,100636.50
2024-02-29T21:25:02.531Z,100624.94
2024-02-29T21:27:30.144Z,100619.69
2024-02-29T21:29:57.645Z,100631.50
2024-02-29T21:32:25.378Z,100628.88
2024-02-29T21:34:52.958Z,100628.00
2024-02-29T21:37:20.485Z,100625.50
2024-02-29T21:39:48.125Z,100630.63
2024-02-29T21:42:17.028Z,100632.19
2024-02-29T21:44:46.432Z,100627.78
2024-02-29T21:47:13.924Z,100624.31
2024-02-29T21:49:41.795Z,100637.63
2024-02-29T21:52:09.403Z,100631.00
2024-02-29T21:54:40.001Z,100629.78
2024-02-29T21:57:07.523Z,100630.78
2024-02-29T21:59:36.359Z,100626.25
2024-02-29T22:02:04.147Z,100630.03
2024-02-29T22:04:31.755Z,100621.69
2024-02-29T22:06:59.372Z,100621.31
2024-02-29T22:09:26.863Z,100620.25
2024-02-29T22:11:55.350Z,100616.44
2024-02-29T22:14:22.848Z,100611.53
2024-02-29T22:16:51.654Z,100604.19
2024-02-29T22:19:19.416Z,100611.34
2024-02-29T22:21:46.962Z,100603.47
2024-02-29T22:24:16.787Z,100612.06
2024-02-29T22:26:44.601Z,100602.91
2024-02-29T22:29:13.220Z,100596.00
2024-02-29T22:31:41.926Z,100596.31
2024-02-29T22:34:11.924Z,100603.09
2024-02-29T22:36:39.498Z,100590.63
2024-02-29T22:39:07.118Z,100590.63
2024-02-29T22:41:38.239Z,100589.91
2024-02-29T22:44:12.690Z,100585.75
2024-02-29T22:46:40.300Z,100580.88
2024-02-29T22:49:07.844Z,100575.50
2024-02-29T22:51:36.684Z,100578.00
2024-02-29T22:54:04.319Z,100578.25
2024-02-29T22:56:31.873Z,100583.38
2024-02-29T22:58:59.366Z,100575.06
2024-02-29T23:01:28.797Z,100568.31
2024-02-29T23:03:56.440Z,100562.03
2024-02-29T23:06:23.987Z,100565.59
2024-02-29T23:08:52.737Z,100564.06
2024-02-29T23:11:20.220Z,100551.19
2024-02-29T23:13:48.025Z,100544.28
2024-02-29T23:16:15.656Z,100544.69
2024-02-29T23:18:43.138Z,100540.13
2024-02-29T23:21:10.917Z,100539.56
2024-02-29T23:23:38.424Z,100544.69
2024-02-29T23:26:08.133Z,100538.34
2024-02-29T23:28:35.973Z,100529.53
2024-02-29T23:31:03.533Z,100537.75
2024-02-29T23:33:31.046Z,100527.41
2024-02-29T23:35:58.533Z,100525.03
2024-02-29T23:38:26.008Z,100524.81
2024-02-29T23:40:53.488Z,100525.84
2024-02-29T23:43:22.369Z,100528.34
2024-02-29T23:45:49.907Z,100525.59
2024-02-29T23:48:17.792Z,100513.34
2024-02-29T23:50:45.597Z,100521.47
2024-02-29T23:53:13.174Z,100520.50
2024-02-29T23:55:40.773Z,100510.72
2024-02-29T23:58:08.274Z,100507.50
